createdAt,value
2022-08-14T00:00:00.910Z,22.4
2022-08-14T00:01:10.069Z,22.4
2022-08-14T00:02:19.258Z,22.4
2022-08-14T00:03:28.425Z,22.4
2022-08-14T00:04:37.596Z,22.4
2022-08-14T00:05:46.514Z,22.4
2022-08-14T00:06:54.956Z,22.3
2022-08-14T00:08:04.138Z,22.4
2022-08-14T00:09:13.302Z,22.4
2022-08-14T00:10:22.483Z,22.3
2022-08-14T00:11:31.647Z,22.3
2022-08-14T00:12:40.842Z,22.3
2022-08-14T00:13:50.002Z,22.3
2022-08-14T00:14:59.168Z,22.2
2022-08-14T00:16:08.335Z,22.2
2022-08-14T00:17:17.501Z,22.1
2022-08-14T00:18:26.678Z,22.1
2022-08-14T00:19:35.874Z,22.1
2022-08-14T00:20:44.054Z,22
2022-08-14T00:21:53.222Z,22
2022-08-14T00:23:02.387Z,22
2022-08-14T00:24:11.581Z,21.9
2022-08-14T00:25:20.737Z,21.9
2022-08-14T00:26:29.904Z,21.9
2022-08-14T00:27:39.096Z,21.9
2022-08-14T00:28:48.253Z,21.9
2022-08-14T00:29:57.434Z,21.9
2022-08-14T00:31:06.587Z,21.9
2022-08-14T00:32:15.770Z,21.9
2022-08-14T00:33:24.939Z,21.8
2022-08-14T00:34:34.116Z,21.8
2022-08-14T00:35:42.302Z,21.8
2022-08-14T00:36:51.481Z,21.8
2022-08-14T00:38:00.638Z,21.8
2022-08-14T00:39:09.820Z,21.7
2022-08-14T00:40:18.007Z,21.7
2022-08-14T00:41:26.212Z,21.7
2022-08-14T00:42:35.368Z,21.7
2022-08-14T00:43:44.546Z,21.6
2022-08-14T00:44:52.744Z,21.6
2022-08-14T00:46:00.954Z,21.6
2022-08-14T00:47:10.101Z,21.6
2022-08-14T00:48:19.264Z,21.5
2022-08-14T00:49:28.440Z,21.5
2022-08-14T00:50:37.609Z,21.5
2022-08-14T00:51:46.792Z,21.4
2022-08-14T00:52:55.968Z,21.3
2022-08-14T00:54:05.134Z,21.2
2022-08-14T00:55:14.308Z,20.9
2022-08-14T00:56:23.476Z,21
2022-08-14T00:57:32.651Z,20.9
2022-08-14T00:58:41.823Z,20.9
2022-08-14T01:01:00.163Z,20.9
2022-08-14T01:02:08.364Z,20.9
2022-08-14T01:03:17.527Z,20.9
2022-08-14T01:04:26.708Z,20.9
2022-08-14T01:05:35.868Z,20.8
2022-08-14T01:06:45.046Z,20.7
2022-08-14T01:07:54.209Z,20.7
2022-08-14T01:09:03.395Z,20.6
2022-08-14T01:10:12.554Z,20.5
2022-08-14T01:11:20.758Z,20.5
2022-08-14T01:12:28.977Z,20.4
2022-08-14T01:13:38.112Z,20.4
2022-08-14T01:14:47.284Z,20.4
2022-08-14T01:15:56.462Z,20.5
2022-08-14T01:17:05.627Z,20.5
2022-08-14T01:18:14.801Z,20.5
2022-08-14T01:19:23.974Z,20.5
2022-08-14T01:20:33.169Z,20.6
2022-08-14T01:21:41.343Z,20.6
2022-08-14T01:22:49.536Z,20.6
2022-08-14T01:23:58.709Z,20.7
2022-08-14T01:25:07.895Z,20.8
2022-08-14T01:26:17.057Z,20.8
2022-08-14T01:27:26.228Z,20.7
2022-08-14T01:28:35.407Z,20.6
2022-08-14T01:29:44.562Z,20.7
2022-08-14T01:30:53.760Z,20.7
2022-08-14T01:32:02.927Z,20.7
2022-08-14T01:33:12.086Z,20.7
2022-08-14T01:34:21.255Z,20.6
2022-08-14T01:35:30.437Z,20.4
2022-08-14T01:36:39.593Z,20.3
2022-08-14T01:37:47.795Z,20.3
2022-08-14T01:38:56.970Z,20.2
2022-08-14T01:40:06.125Z,20.3
2022-08-14T01:41:15.299Z,20.2
2022-08-14T01:42:24.481Z,20.3
2022-08-14T01:43:33.656Z,20.5
2022-08-14T01:44:42.840Z,20.7
2022-08-14T01:45:51.996Z,20.7
2022-08-14T01:47:01.158Z,20.8
2022-08-14T01:48:10.336Z,20.8
2022-08-14T01:49:19.501Z,20.8
2022-08-14T01:50:28.677Z,20.8
2022-08-14T01:51:37.857Z,20.8
2022-08-14T01:52:46.040Z,20.8
2022-08-14T01:53:55.217Z,20.8
2022-08-14T01:55:04.390Z,20.8
2022-08-14T01:56:13.561Z,20.8
2022-08-14T01:57:22.755Z,20.8
2022-08-14T01:58:31.911Z,20.7
2022-08-14T01:59:41.072Z,20.7
2022-08-14T02:00:50.252Z,20.7
2022-08-14T02:01:59.444Z,20.8
2022-08-14T02:03:08.585Z,20.8
2022-08-14T02:04:17.768Z,20.8
2022-08-14T02:05:26.937Z,20.8
2022-08-14T02:06:36.137Z,20.9
2022-08-14T02:07:44.301Z,20.8
2022-08-14T02:08:53.476Z,20.8
2022-08-14T02:10:02.643Z,20.7
2022-08-14T02:11:11.811Z,20.7
2022-08-14T02:12:20.987Z,20.7
2022-08-14T02:13:30.158Z,20.7
2022-08-14T02:14:39.328Z,20.7
2022-08-14T02:15:48.507Z,20.7
2022-08-14T02:16:57.669Z,20.7
2022-08-14T02:18:06.867Z,20.7
2022-08-14T02:19:16.026Z,20.6
2022-08-14T02:20:25.199Z,20.6
2022-08-14T02:21:34.362Z,20.6
2022-08-14T02:22:42.574Z,20.6
2022-08-14T02:23:50.759Z,20.6
2022-08-14T02:24:59.930Z,20.5
2022-08-14T02:26:08.113Z,20.5
2022-08-14T02:27:16.304Z,20.5
2022-08-14T02:28:25.465Z,20.5
2022-08-14T02:29:34.642Z,20.5
2022-08-14T02:30:43.835Z,20.6
2022-08-14T02:31:52.997Z,20.6
2022-08-14T02:33:02.158Z,20.6
2022-08-14T02:34:11.336Z,20.6
2022-08-14T02:35:20.499Z,20.6
2022-08-14T02:36:29.688Z,20.6
2022-08-14T02:37:38.853Z,20.6
2022-08-14T02:38:48.023Z,20.5
2022-08-14T02:39:57.238Z,20.5
2022-08-14T02:41:06.361Z,20.4
2022-08-14T02:42:14.564Z,20.3
2022-08-14T02:43:23.738Z,20.2
2022-08-14T02:44:32.906Z,20.1
2022-08-14T02:45:42.076Z,20
2022-08-14T02:46:51.260Z,20.1
2022-08-14T02:48:00.430Z,20.1
2022-08-14T02:49:09.590Z,20.2
2022-08-14T02:50:18.762Z,20.2
2022-08-14T02:51:27.945Z,20.2
2022-08-14T02:52:37.118Z,20.1
2022-08-14T02:53:46.285Z,20.2
2022-08-14T02:54:55.477Z,20.1
2022-08-14T02:56:04.654Z,20.2
2022-08-14T02:57:12.823Z,20.1
2022-08-14T02:58:22.008Z,20.1
2022-08-14T02:59:31.161Z,20.1
2022-08-14T03:00:40.338Z,20.1
2022-08-14T03:01:49.510Z,20.1
2022-08-14T03:02:58.683Z,20.1
2022-08-14T03:04:07.851Z,20.1
2022-08-14T03:05:17.038Z,20.1
2022-08-14T03:06:26.195Z,20.1
2022-08-14T03:07:35.365Z,20.1
2022-08-14T03:08:44.552Z,20
2022-08-14T03:09:53.726Z,19.9
2022-08-14T03:11:02.887Z,19.9
2022-08-14T03:12:11.090Z,19.9
2022-08-14T03:13:20.248Z,19.9
2022-08-14T03:14:29.421Z,19.9
2022-08-14T03:15:38.600Z,19.8
2022-08-14T03:16:47.773Z,19.8
2022-08-14T03:17:56.936Z,19.8
2022-08-14T03:19:06.116Z,19.8
2022-08-14T03:20:15.283Z,19.8
2022-08-14T03:21:24.457Z,19.8
2022-08-14T03:22:33.626Z,19.7
2022-08-14T03:23:42.802Z,19.7
2022-08-14T03:24:51.982Z,19.7
2022-08-14T03:26:01.143Z,19.7
2022-08-14T03:27:09.342Z,19.7
2022-08-14T03:28:18.504Z,19.7
2022-08-14T03:29:27.684Z,19.8
2022-08-14T03:30:36.846Z,19.8
2022-08-14T03:31:46.020Z,19.9
2022-08-14T03:32:55.199Z,19.9
2022-08-14T03:34:04.372Z,19.9
2022-08-14T03:35:13.537Z,20
2022-08-14T03:36:22.704Z,20
2022-08-14T03:37:31.875Z,20
2022-08-14T03:38:41.057Z,20
2022-08-14T03:39:50.233Z,20
2022-08-14T03:40:59.400Z,20.1
2022-08-14T03:42:07.578Z,20.1
2022-08-14T03:43:16.763Z,20.1
2022-08-14T03:44:25.932Z,20.1
2022-08-14T03:45:35.110Z,20.1
2022-08-14T03:46:44.274Z,20.1
2022-08-14T03:47:53.440Z,20.1
2022-08-14T03:49:02.618Z,20
2022-08-14T03:50:11.807Z,20
2022-08-14T03:51:20.984Z,20
2022-08-14T03:52:30.141Z,20.1
2022-08-14T03:53:39.339Z,20.1
2022-08-14T03:54:48.480Z,20.1
2022-08-14T03:55:57.658Z,20.1
2022-08-14T03:57:05.837Z,20.2
2022-08-14T03:58:15.017Z,20.2
2022-08-14T03:59:24.196Z,20.1
2022-08-14T04:00:33.361Z,20.1
2022-08-14T04:01:42.523Z,20.1
2022-08-14T04:02:51.697Z,20.1
2022-08-14T04:04:00.865Z,20
2022-08-14T04:05:10.052Z,20
2022-08-14T04:06:19.236Z,20.1
2022-08-14T04:07:28.389Z,20
2022-08-14T04:08:37.565Z,20
2022-08-14T04:09:46.738Z,20.1
2022-08-14T04:10:55.924Z,20.1
2022-08-14T04:12:04.102Z,20.1
2022-08-14T04:13:13.271Z,20
2022-08-14T04:14:22.438Z,20
2022-08-14T04:15:31.605Z,20
2022-08-14T04:16:40.788Z,19.9
2022-08-14T04:17:49.954Z,19.9
2022-08-14T04:18:59.132Z,19.9
2022-08-14T04:20:08.307Z,19.9
2022-08-14T04:21:17.501Z,19.8
2022-08-14T04:22:26.681Z,19.9
2022-08-14T04:23:35.845Z,19.9
2022-08-14T04:24:44.995Z,19.8
2022-08-14T04:25:54.167Z,19.8
2022-08-14T04:27:02.351Z,19.9
2022-08-14T04:28:11.534Z,20
2022-08-14T04:29:20.709Z,19.9
2022-08-14T04:30:29.876Z,20
2022-08-14T04:31:39.065Z,20.1
2022-08-14T04:32:48.211Z,20
2022-08-14T04:33:57.385Z,20.1
2022-08-14T04:35:06.582Z,20.1
2022-08-14T04:36:15.729Z,20.1
2022-08-14T04:37:24.900Z,20
2022-08-14T04:38:34.075Z,20
2022-08-14T04:39:43.248Z,20
2022-08-14T04:40:52.427Z,20.1
2022-08-14T04:42:00.616Z,20
2022-08-14T04:43:09.787Z,20.1
2022-08-14T04:44:18.956Z,20
2022-08-14T04:45:28.142Z,20.1
2022-08-14T04:46:37.295Z,20.1
2022-08-14T04:47:46.483Z,20.1
2022-08-14T04:48:55.640Z,20.1
2022-08-14T04:50:04.810Z,20.1
2022-08-14T04:51:13.999Z,20.1
2022-08-14T04:52:23.158Z,20
2022-08-14T04:53:32.331Z,20
2022-08-14T04:54:41.507Z,20
2022-08-14T04:55:50.678Z,20.1
2022-08-14T04:56:58.874Z,20.2
2022-08-14T04:58:08.048Z,20.3
2022-08-14T04:59:17.217Z,20.3
2022-08-14T05:00:26.384Z,20.4
2022-08-14T05:01:35.559Z,20.6
2022-08-14T05:02:44.750Z,20.9
2022-08-14T05:03:53.912Z,21.1
2022-08-14T05:05:03.072Z,21.2
2022-08-14T05:06:12.248Z,21.4
2022-08-14T05:08:30.594Z,21.6
2022-08-14T05:09:39.765Z,21.8
2022-08-14T05:10:48.937Z,22.1
2022-08-14T05:11:57.115Z,22.2
2022-08-14T05:13:06.317Z,22.3
2022-08-14T05:14:15.471Z,22.1
2022-08-14T05:15:24.642Z,22
2022-08-14T05:16:33.810Z,21.8
2022-08-14T05:17:42.993Z,21.8
2022-08-14T05:18:52.148Z,21.7
2022-08-14T05:20:01.334Z,21.5
2022-08-14T05:21:10.498Z,21.4
2022-08-14T05:22:19.691Z,21.5
2022-08-14T05:23:28.850Z,21.5
2022-08-14T05:24:38.019Z,21.6
2022-08-14T05:25:47.200Z,21.6
2022-08-14T05:26:55.384Z,21.5
2022-08-14T05:28:04.546Z,21.5
2022-08-14T05:29:13.722Z,21.4
2022-08-14T05:30:22.901Z,21.4
2022-08-14T05:31:32.070Z,21.5
2022-08-14T05:32:41.276Z,21.8
2022-08-14T05:33:50.409Z,22
2022-08-14T05:34:59.619Z,22.5
2022-08-14T05:36:08.755Z,22.6
2022-08-14T05:37:17.934Z,22.8
2022-08-14T05:38:27.111Z,22.8
2022-08-14T05:39:36.283Z,22.8
2022-08-14T05:40:45.470Z,22.9
2022-08-14T05:41:53.657Z,22.9
2022-08-14T05:43:02.817Z,23.3
2022-08-14T05:44:11.991Z,23.4
2022-08-14T05:45:21.152Z,23.3
2022-08-14T05:46:30.328Z,23.5
2022-08-14T05:48:48.666Z,23.7
2022-08-14T05:49:57.846Z,23.7
2022-08-14T05:51:07.018Z,23.6
2022-08-14T05:52:16.203Z,23.7
2022-08-14T05:53:25.366Z,23.7
2022-08-14T05:54:34.543Z,23.9
2022-08-14T05:55:43.699Z,23.9
2022-08-14T05:56:51.892Z,23.9
2022-08-14T05:58:01.070Z,23.9
2022-08-14T05:59:10.240Z,23.6
2022-08-14T06:00:19.420Z,23.7
2022-08-14T06:01:28.590Z,23.6
2022-08-14T06:02:37.786Z,23.7
2022-08-14T06:03:46.932Z,23.8
2022-08-14T06:04:56.122Z,24
2022-08-14T06:06:05.278Z,23.9
2022-08-14T06:07:14.457Z,23.9
2022-08-14T06:08:23.628Z,24
2022-08-14T06:09:32.798Z,23.8
2022-08-14T06:10:41.978Z,24
2022-08-14T06:11:50.170Z,23.9
2022-08-14T06:12:59.328Z,23.8
2022-08-14T06:14:08.499Z,24.2
2022-08-14T06:15:17.677Z,24.8
2022-08-14T06:16:26.844Z,25.2
2022-08-14T06:17:36.020Z,25.2
2022-08-14T06:18:45.179Z,25
2022-08-14T06:19:54.371Z,24.7
2022-08-14T06:21:03.533Z,24.6
2022-08-14T06:22:12.704Z,24.6
2022-08-14T06:23:21.907Z,24.5
2022-08-14T06:24:31.068Z,24.5
2022-08-14T06:25:40.226Z,24.5
2022-08-14T06:26:48.411Z,24.5
2022-08-14T06:27:56.610Z,24.8
2022-08-14T06:29:04.820Z,24.8
2022-08-14T06:30:13.967Z,24.8
2022-08-14T06:31:22.170Z,25
2022-08-14T06:32:30.352Z,25.2
2022-08-14T06:33:38.539Z,25
2022-08-14T06:34:47.715Z,24.8
2022-08-14T06:35:56.889Z,25.1
2022-08-14T06:37:06.070Z,25.3
2022-08-14T06:38:15.240Z,24.9
2022-08-14T06:39:24.407Z,25
2022-08-14T06:40:33.573Z,25.1
2022-08-14T06:41:42.748Z,25.5
2022-08-14T06:42:51.918Z,25.3
2022-08-14T06:44:01.112Z,25.5
2022-08-14T06:45:10.272Z,25.7
2022-08-14T06:46:19.458Z,25.7
2022-08-14T06:47:28.625Z,25.6
2022-08-14T06:48:36.797Z,25.5
2022-08-14T06:49:45.999Z,25.7
2022-08-14T06:50:55.188Z,25.4
2022-08-14T06:52:04.337Z,25.6
2022-08-14T06:53:13.507Z,25.2
2022-08-14T06:54:22.678Z,24.9
2022-08-14T06:55:30.885Z,25.2
2022-08-14T06:56:39.064Z,25.3
2022-08-14T06:57:48.245Z,25.2
2022-08-14T06:58:56.405Z,25.3
2022-08-14T07:00:04.630Z,25.2
2022-08-14T07:01:13.763Z,24.9
2022-08-14T07:02:22.949Z,25.1
2022-08-14T07:03:32.128Z,25.6
2022-08-14T07:04:41.316Z,25.9
2022-08-14T07:05:50.468Z,25.5
2022-08-14T07:06:59.644Z,25.8
2022-08-14T07:08:08.810Z,25.5
2022-08-14T07:09:18.008Z,24.9
2022-08-14T07:10:27.149Z,25.2
2022-08-14T07:11:36.327Z,25.6
2022-08-14T07:12:45.505Z,25.9
2022-08-14T07:13:54.680Z,26.1
2022-08-14T07:15:02.858Z,26.5
2022-08-14T07:16:12.035Z,26.1
2022-08-14T07:17:21.217Z,25.9
2022-08-14T07:18:30.375Z,25.9
2022-08-14T07:19:39.566Z,26.1
2022-08-14T07:20:48.743Z,25.9
2022-08-14T07:21:57.903Z,25.8
2022-08-14T07:23:07.076Z,25.6
2022-08-14T07:24:16.238Z,26.1
2022-08-14T07:25:25.426Z,26.2
2022-08-14T07:26:34.587Z,26.3
2022-08-14T07:27:43.762Z,26.1
2022-08-14T07:30:02.109Z,25.7
2022-08-14T07:31:10.319Z,25.7
2022-08-14T07:32:19.471Z,25.9
2022-08-14T07:33:28.640Z,25.8
2022-08-14T07:34:37.822Z,25.3
2022-08-14T07:35:46.982Z,25.3
2022-08-14T07:36:56.164Z,25.6
2022-08-14T07:39:14.508Z,26.1
2022-08-14T07:40:23.673Z,26.4
2022-08-14T07:41:32.854Z,26.8
2022-08-14T07:42:42.027Z,26.8
2022-08-14T07:43:51.203Z,26.6
2022-08-14T07:45:00.375Z,26.7
2022-08-14T07:46:08.553Z,26.5
2022-08-14T07:47:17.745Z,26.9
2022-08-14T07:49:36.093Z,27.2
2022-08-14T07:50:44.267Z,26.9
2022-08-14T07:51:52.484Z,27.2
2022-08-14T07:53:01.623Z,27
2022-08-14T07:54:10.819Z,26.8
2022-08-14T07:55:19.969Z,27.3
2022-08-14T07:56:29.139Z,27.3
2022-08-14T07:57:38.315Z,27.1
2022-08-14T07:58:47.493Z,27.1
2022-08-14T08:01:05.835Z,27.5
2022-08-14T08:02:15.006Z,27.8
2022-08-14T08:03:24.200Z,27.6
2022-08-14T08:04:33.347Z,27.7
2022-08-14T08:05:42.521Z,27.6
2022-08-14T08:06:50.740Z,27
2022-08-14T08:07:59.895Z,27.1
2022-08-14T08:09:09.057Z,28
2022-08-14T08:10:18.226Z,28.4
2022-08-14T08:11:27.412Z,28.5
2022-08-14T08:12:36.577Z,28.6
2022-08-14T08:13:45.758Z,28.1
2022-08-14T08:14:54.921Z,26.9
2022-08-14T08:16:03.119Z,26.7
2022-08-14T08:17:11.314Z,26.9
2022-08-14T08:18:20.477Z,27.5
2022-08-14T08:19:29.657Z,28.1
2022-08-14T08:20:38.844Z,28
2022-08-14T08:21:48.013Z,28.1
2022-08-14T08:22:57.160Z,28.2
2022-08-14T08:24:06.342Z,27.9
2022-08-14T08:25:15.516Z,27.9
2022-08-14T08:26:24.688Z,28.2
2022-08-14T08:27:33.853Z,28.1
2022-08-14T08:28:43.030Z,28.4
2022-08-14T08:29:52.210Z,28.6
2022-08-14T08:31:01.378Z,28.2
2022-08-14T08:32:09.564Z,29
2022-08-14T08:33:18.736Z,28.3
2022-08-14T08:34:27.917Z,27.9
2022-08-14T08:35:37.082Z,28.2
2022-08-14T08:36:46.248Z,27.9
2022-08-14T08:37:55.427Z,27.6
2022-08-14T08:39:04.589Z,28
2022-08-14T08:40:13.768Z,27.9
2022-08-14T08:41:22.952Z,27.6
2022-08-14T08:42:32.124Z,27.9
2022-08-14T08:43:41.308Z,28.2
2022-08-14T08:44:50.468Z,28.3
2022-08-14T08:45:59.648Z,28.4
2022-08-14T08:47:07.861Z,28.5
2022-08-14T08:48:16.995Z,29
2022-08-14T08:49:26.167Z,29.7
2022-08-14T08:51:44.539Z,28.8
2022-08-14T08:52:53.682Z,28.8
2022-08-14T08:54:02.854Z,28.7
2022-08-14T08:55:12.041Z,29
2022-08-14T08:56:21.205Z,29.1
2022-08-14T08:57:30.395Z,29.4
2022-08-14T08:58:39.547Z,28.7
2022-08-14T08:59:48.722Z,28.8
2022-08-14T09:00:57.892Z,28.4
2022-08-14T09:02:06.101Z,29.2
2022-08-14T09:03:15.281Z,29.7
2022-08-14T09:04:24.440Z,29.3
2022-08-14T09:05:33.606Z,29.2
2022-08-14T09:06:42.781Z,29
2022-08-14T09:07:51.958Z,29.4
2022-08-14T09:09:01.141Z,29.5
2022-08-14T09:10:10.325Z,29.7
2022-08-14T09:11:19.465Z,29.8
2022-08-14T09:12:28.643Z,29.8
2022-08-14T09:13:37.828Z,29.6
2022-08-14T09:14:46.997Z,29.6
2022-08-14T09:15:56.151Z,29.1
2022-08-14T09:17:04.364Z,28.7
2022-08-14T09:18:13.524Z,28.9
2022-08-14T09:19:22.703Z,28.8
2022-08-14T09:20:31.875Z,28.8
2022-08-14T09:21:41.067Z,28.9
2022-08-14T09:22:50.212Z,28.8
2022-08-14T09:23:59.383Z,28.5
2022-08-14T09:25:08.614Z,28.8
2022-08-14T09:26:17.765Z,29.3
2022-08-14T09:27:26.901Z,29.4
2022-08-14T09:28:36.076Z,29.3
2022-08-14T09:29:45.272Z,29.7
2022-08-14T09:30:54.443Z,30.3
2022-08-14T09:32:02.629Z,29.9
2022-08-14T09:33:11.783Z,28.3
2022-08-14T09:34:20.945Z,28.5
2022-08-14T09:35:30.125Z,28.8
2022-08-14T09:36:39.298Z,29.4
2022-08-14T09:38:57.642Z,30.5
2022-08-14T09:40:06.818Z,30.8
2022-08-14T09:41:15.996Z,30.3
2022-08-14T09:42:25.168Z,30.5
2022-08-14T09:43:34.330Z,29.9
2022-08-14T09:44:43.505Z,29.7
2022-08-14T09:45:52.675Z,29
2022-08-14T09:47:00.866Z,29.1
2022-08-14T09:48:10.052Z,29.4
2022-08-14T09:49:19.210Z,29.5
2022-08-14T09:50:28.419Z,29.5
2022-08-14T09:51:37.558Z,29.7
2022-08-14T09:52:46.733Z,30.2
2022-08-14T09:53:55.901Z,30.4
2022-08-14T09:55:05.116Z,30.6
2022-08-14T09:56:14.255Z,30.1
2022-08-14T09:57:23.413Z,29.5
2022-08-14T09:58:32.611Z,30.1
2022-08-14T09:59:41.770Z,30.1
2022-08-14T10:00:50.998Z,30.1
2022-08-14T10:01:59.136Z,29.9
2022-08-14T10:03:08.303Z,30.2
2022-08-14T10:04:17.490Z,30
2022-08-14T10:05:26.645Z,30
2022-08-14T10:06:35.835Z,30.7
2022-08-14T10:07:44.989Z,30.9
2022-08-14T10:08:54.203Z,31.3
2022-08-14T10:10:03.357Z,31.4
2022-08-14T10:11:12.512Z,30.9
2022-08-14T10:12:21.681Z,30.4
2022-08-14T10:13:30.863Z,30.7
2022-08-14T10:14:40.060Z,30.6
2022-08-14T10:15:49.214Z,29.2
2022-08-14T10:16:57.396Z,28.9
2022-08-14T10:18:06.554Z,29
2022-08-14T10:19:15.744Z,29.6
2022-08-14T10:20:24.903Z,30.5
2022-08-14T10:21:34.078Z,30.7
2022-08-14T10:22:43.256Z,30.5
2022-08-14T10:23:52.463Z,30.2
2022-08-14T10:25:00.629Z,30.2
2022-08-14T10:26:09.793Z,29.9
2022-08-14T10:27:19.007Z,29.9
2022-08-14T10:28:28.139Z,30.1
2022-08-14T10:29:37.310Z,30.4
2022-08-14T10:30:46.484Z,30.5
2022-08-14T10:31:55.654Z,30.6
2022-08-14T10:33:04.835Z,30.6
2022-08-14T10:34:14.019Z,30.5
2022-08-14T10:35:23.192Z,30.2
2022-08-14T10:36:32.348Z,29.9
2022-08-14T10:37:41.522Z,30.1
2022-08-14T10:38:50.698Z,29.9
2022-08-14T10:39:58.901Z,30.6
2022-08-14T10:41:08.067Z,30.7
2022-08-14T10:42:17.231Z,30.8
2022-08-14T10:43:26.400Z,30.8
2022-08-14T10:44:35.584Z,31.3
2022-08-14T10:45:44.755Z,30.6
2022-08-14T10:46:53.928Z,30.8
2022-08-14T10:48:03.112Z,30.2
2022-08-14T10:49:12.298Z,30
2022-08-14T10:50:21.451Z,30.5
2022-08-14T10:51:30.639Z,30.7
2022-08-14T10:52:39.795Z,30.7
2022-08-14T10:53:48.998Z,30.9
2022-08-14T10:54:57.155Z,30.2
2022-08-14T10:56:06.332Z,30.3
2022-08-14T10:57:15.512Z,30.2
2022-08-14T10:58:24.670Z,30.3
2022-08-14T10:59:33.843Z,30.5
2022-08-14T11:00:43.023Z,30.9
2022-08-14T11:01:52.209Z,30.7
2022-08-14T11:03:01.385Z,30.3
2022-08-14T11:04:10.563Z,30
2022-08-14T11:05:19.707Z,30.3
2022-08-14T11:06:28.885Z,31.1
2022-08-14T11:07:38.104Z,31.6
2022-08-14T11:08:47.228Z,31
2022-08-14T11:09:55.433Z,30.7
2022-08-14T11:11:04.609Z,31.1
2022-08-14T11:12:13.757Z,31.1
2022-08-14T11:13:22.941Z,31.1
2022-08-14T11:14:32.111Z,30.7
2022-08-14T11:15:41.278Z,31.1
2022-08-14T11:16:50.462Z,31
2022-08-14T11:17:59.631Z,30.2
2022-08-14T11:19:08.841Z,30.9
2022-08-14T11:20:16.997Z,31.8
2022-08-14T11:21:25.212Z,31.6
2022-08-14T11:22:34.352Z,31.4
2022-08-14T11:23:43.549Z,31.5
2022-08-14T11:24:52.703Z,32.2
2022-08-14T11:26:01.875Z,33.2
2022-08-14T11:27:10.096Z,33.5
2022-08-14T11:28:18.253Z,32.8
2022-08-14T11:29:27.438Z,32.8
2022-08-14T11:30:36.608Z,32.6
2022-08-14T11:31:45.775Z,31.3
2022-08-14T11:32:54.971Z,32.3
2022-08-14T11:34:04.127Z,32.4
2022-08-14T11:35:13.301Z,31.3
2022-08-14T11:36:22.499Z,32
2022-08-14T11:37:31.647Z,32.2
2022-08-14T11:38:40.811Z,32.4
2022-08-14T11:39:49.986Z,31.5
2022-08-14T11:40:59.159Z,31.1
2022-08-14T11:42:08.338Z,29.7
2022-08-14T11:43:16.556Z,30.9
2022-08-14T11:44:25.700Z,31.1
2022-08-14T11:45:34.874Z,31.4
2022-08-14T11:46:44.058Z,32
2022-08-14T11:47:53.212Z,32.4
2022-08-14T11:49:02.402Z,32.5
2022-08-14T11:50:11.554Z,32.3
2022-08-14T11:51:19.757Z,32.6
2022-08-14T11:52:28.930Z,31.9
2022-08-14T11:53:37.127Z,31.7
2022-08-14T11:54:46.309Z,31
2022-08-14T11:55:55.482Z,30.7
2022-08-14T11:57:04.630Z,30.8
2022-08-14T11:58:13.828Z,31.2
2022-08-14T11:59:22.999Z,31.8
2022-08-14T12:00:32.161Z,30.6
2022-08-14T12:01:41.329Z,30.4
2022-08-14T12:02:50.503Z,31.7
2022-08-14T12:03:58.732Z,32.3
2022-08-14T12:05:06.881Z,32.8
2022-08-14T12:06:16.055Z,33
2022-08-14T12:07:25.243Z,33
2022-08-14T12:08:34.413Z,31.9
2022-08-14T12:09:43.581Z,31.7
2022-08-14T12:10:52.753Z,31.5
2022-08-14T12:12:01.935Z,31.9
2022-08-14T12:13:11.104Z,32.2
2022-08-14T12:14:20.280Z,32.6
2022-08-14T12:15:29.452Z,32.5
2022-08-14T12:17:47.787Z,32.8
2022-08-14T12:18:56.957Z,32
2022-08-14T12:20:05.153Z,32.2
2022-08-14T12:21:14.327Z,32.2
2022-08-14T12:22:23.500Z,31.7
2022-08-14T12:23:32.688Z,31.2
2022-08-14T12:24:41.851Z,31.4
2022-08-14T12:25:51.020Z,31.6
2022-08-14T12:27:00.191Z,31.7
2022-08-14T12:28:09.366Z,32.2
2022-08-14T12:29:18.557Z,32.5
2022-08-14T12:30:27.697Z,32.9
2022-08-14T12:31:36.891Z,32.5
2022-08-14T12:32:46.096Z,31.6
2022-08-14T12:33:55.242Z,32.3
2022-08-14T12:35:03.438Z,33.4
2022-08-14T12:36:12.589Z,33.7
2022-08-14T12:37:21.767Z,33
2022-08-14T12:38:30.943Z,32.4
2022-08-14T12:39:40.099Z,32.5
2022-08-14T12:40:49.284Z,32.2
2022-08-14T12:41:58.459Z,32.1
2022-08-14T12:43:07.635Z,32.3
2022-08-14T12:44:16.798Z,33.4
2022-08-14T12:45:25.968Z,34.2
2022-08-14T12:46:35.150Z,33.8
2022-08-14T12:47:44.322Z,33.4
2022-08-14T12:48:53.499Z,33.8
2022-08-14T12:50:02.667Z,32.9
2022-08-14T12:51:11.842Z,32.1
2022-08-14T12:52:20.025Z,32.7
2022-08-14T12:53:29.197Z,33.5
2022-08-14T12:54:38.370Z,33.8
2022-08-14T12:55:47.536Z,33.6
2022-08-14T12:56:56.729Z,32.4
2022-08-14T12:58:05.903Z,31.7
2022-08-14T12:59:15.064Z,31.6
2022-08-14T13:00:24.237Z,31.6
2022-08-14T13:01:33.412Z,31.9
2022-08-14T13:02:42.589Z,32.5
2022-08-14T13:03:51.751Z,32.8
2022-08-14T13:05:00.942Z,32.1
2022-08-14T13:06:10.122Z,32.1
2022-08-14T13:07:19.270Z,32.3
2022-08-14T13:08:27.460Z,32.8
2022-08-14T13:09:36.644Z,32.2
2022-08-14T13:10:45.819Z,31.2
2022-08-14T13:11:54.986Z,31.7
2022-08-14T13:13:04.172Z,32.6
2022-08-14T13:14:13.333Z,32.4
2022-08-14T13:15:22.505Z,32.2
2022-08-14T13:16:31.672Z,33
2022-08-14T13:17:40.855Z,33.3
2022-08-14T13:18:50.030Z,33.8
2022-08-14T13:19:59.209Z,32.9
2022-08-14T13:21:08.375Z,33.1
2022-08-14T13:22:17.542Z,32.8
2022-08-14T13:23:26.723Z,32.6
2022-08-14T13:24:34.915Z,32.9
2022-08-14T13:25:44.072Z,33.8
2022-08-14T13:28:02.442Z,33.6
2022-08-14T13:29:11.597Z,33.5
2022-08-14T13:30:20.764Z,32.9
2022-08-14T13:31:29.941Z,32.6
2022-08-14T13:32:39.155Z,33.1
2022-08-14T13:33:48.291Z,33.5
2022-08-14T13:34:57.454Z,34
2022-08-14T13:36:06.632Z,34.5
2022-08-14T13:37:15.826Z,34.3
2022-08-14T13:38:24.987Z,33.9
2022-08-14T13:39:33.171Z,33.5
2022-08-14T13:40:42.345Z,33.3
2022-08-14T13:41:51.523Z,33.3
2022-08-14T13:43:00.692Z,34.2
2022-08-14T13:44:09.866Z,33
2022-08-14T13:45:19.038Z,33.2
2022-08-14T13:46:28.225Z,33.1
2022-08-14T13:47:37.399Z,33.3
2022-08-14T13:48:46.551Z,32.8
2022-08-14T13:49:55.729Z,33.4
2022-08-14T13:51:04.914Z,33.9
2022-08-14T13:52:14.082Z,34.3
2022-08-14T13:53:23.250Z,33.9
2022-08-14T13:54:32.443Z,34
2022-08-14T13:55:40.611Z,34.1
2022-08-14T13:56:49.793Z,33.6
2022-08-14T13:57:58.949Z,33.5
2022-08-14T13:59:08.138Z,32.7
2022-08-14T14:00:17.302Z,32.8
2022-08-14T14:01:26.474Z,33.3
2022-08-14T14:02:35.654Z,33.5
2022-08-14T14:03:44.848Z,33.3
2022-08-14T14:04:54.020Z,33.6
2022-08-14T14:06:03.184Z,33.3
2022-08-14T14:07:12.354Z,33.6
2022-08-14T14:08:21.513Z,33
2022-08-14T14:09:30.715Z,32.5
2022-08-14T14:10:38.875Z,32.4
2022-08-14T14:11:48.087Z,32.5
2022-08-14T14:12:57.232Z,32.8
2022-08-14T14:14:06.392Z,33.5
2022-08-14T14:15:15.573Z,33.5
2022-08-14T14:16:23.763Z,33.7
2022-08-14T14:17:32.933Z,33.6
2022-08-14T14:18:42.132Z,33.3
2022-08-14T14:19:51.275Z,33.6
2022-08-14T14:21:00.459Z,33.5
2022-08-14T14:22:09.642Z,32.7
2022-08-14T14:23:18.802Z,32
2022-08-14T14:24:27.970Z,33
2022-08-14T14:25:37.148Z,33.8
2022-08-14T14:26:46.341Z,33.9
2022-08-14T14:27:55.493Z,33.6
2022-08-14T14:29:04.698Z,33.3
2022-08-14T14:30:13.842Z,33.4
2022-08-14T14:31:22.030Z,32.6
2022-08-14T14:32:31.201Z,32
2022-08-14T14:33:40.381Z,31.5
2022-08-14T14:34:49.560Z,31.4
2022-08-14T14:35:58.723Z,32.2
2022-08-14T14:37:07.897Z,32.8
2022-08-14T14:38:17.107Z,33.4
2022-08-14T14:39:26.250Z,33.7
2022-08-14T14:40:35.421Z,33.5
2022-08-14T14:41:44.623Z,33.8
2022-08-14T14:42:53.778Z,34.1
2022-08-14T14:44:02.951Z,34
2022-08-14T14:45:12.104Z,33.2
2022-08-14T14:46:20.305Z,33.1
2022-08-14T14:47:29.470Z,32.6
2022-08-14T14:48:38.637Z,32.6
2022-08-14T14:49:47.820Z,32.3
2022-08-14T14:50:57.023Z,33.1
2022-08-14T14:53:15.329Z,33.5
2022-08-14T14:54:24.497Z,32.8
2022-08-14T14:55:33.685Z,32.3
2022-08-14T14:56:42.854Z,32.2
2022-08-14T14:57:52.031Z,32.2
2022-08-14T14:59:01.196Z,32
2022-08-14T15:00:10.379Z,32
2022-08-14T15:01:18.580Z,31.9
2022-08-14T15:02:27.735Z,31.7
2022-08-14T15:03:36.918Z,32.1
2022-08-14T15:04:46.105Z,32.3
2022-08-14T15:05:55.255Z,33
2022-08-14T15:07:04.426Z,33.2
2022-08-14T15:08:13.594Z,33.5
2022-08-14T15:09:22.793Z,33.4
2022-08-14T15:10:31.946Z,33.9
2022-08-14T15:11:41.111Z,33.5
2022-08-14T15:12:50.289Z,33.5
2022-08-14T15:13:59.465Z,33.6
2022-08-14T15:15:08.642Z,33.9
2022-08-14T15:16:17.810Z,34.2
2022-08-14T15:17:27.003Z,34.4
2022-08-14T15:18:35.170Z,34.3
2022-08-14T15:19:44.356Z,34.2
2022-08-14T15:20:53.528Z,34.5
2022-08-14T15:22:02.727Z,35.1
2022-08-14T15:23:11.878Z,35.2
2022-08-14T15:24:21.035Z,35.2
2022-08-14T15:25:30.223Z,35.2
2022-08-14T15:26:39.406Z,34.8
2022-08-14T15:27:48.555Z,34.2
2022-08-14T15:28:57.752Z,34
2022-08-14T15:31:16.090Z,33.3
2022-08-14T15:32:25.255Z,33.8
2022-08-14T15:33:33.429Z,34
2022-08-14T15:34:42.619Z,34
2022-08-14T15:35:51.796Z,34.1
2022-08-14T15:38:10.141Z,34
2022-08-14T15:39:19.309Z,33.2
2022-08-14T15:40:28.503Z,32.7